sensor_id;sensor_type;location;lat;lon;timestamp;P1;durP1;ratioP1;P2;durP2;ratioP2
5303;SDS011;2674;49.722;10.892;2024-03-02T00:00:14;47.90;;;20.23;;
5303;SDS011;2674;49.722;10.892;2024-03-02T00:02:40;38.90;;;20.40;;
5303;SDS011;2674;49.722;10.892;2024-03-02T00:05:11;45.33;;;21.37;;
5303;SDS011;2674;49.722;10.892;2024-03-02T00:07:38;38.70;;;19.80;;
5303;SDS011;2674;49.722;10.892;2024-03-02T00:10:07;39.47;;;21.10;;
5303;SDS011;2674;49.722;10.892;2024-03-02T00:12:39;40.23;;;20.60;;
5303;SDS011;2674;49.722;10.892;2024-03-02T00:15:25;41.40;;;19.87;;
5303;SDS011;2674;49.722;10.892;2024-03-02T00:17:53;39.87;;;19.97;;
5303;SDS011;2674;49.722;10.892;2024-03-02T00:20:21;42.37;;;20.67;;
5303;SDS011;2674;49.722;10.892;2024-03-02T00:22:48;38.87;;;19.47;;
5303;SDS011;2674;49.722;10.892;2024-03-02T00:25:15;39.60;;;19.57;;
5303;SDS011;2674;49.722;10.892;2024-03-02T00:27:41;44.13;;;21.30;;
5303;SDS011;2674;49.722;10.892;2024-03-02T00:33:16;48.30;;;21.47;;
5303;SDS011;2674;49.722;10.892;2024-03-02T00:35:44;44.30;;;21.33;;
5303;SDS011;2674;49.722;10.892;2024-03-02T00:38:10;45.13;;;20.40;;
5303;SDS011;2674;49.722;10.892;2024-03-02T00:40:36;39.70;;;20.90;;
5303;SDS011;2674;49.722;10.892;2024-03-02T00:43:02;44.17;;;23.50;;
5303;SDS011;2674;49.722;10.892;2024-03-02T00:45:28;47.43;;;22.13;;
5303;SDS011;2674;49.722;10.892;2024-03-02T00:47:54;47.17;;;21.67;;
5303;SDS011;2674;49.722;10.892;2024-03-02T00:50:21;49.30;;;22.10;;
5303;SDS011;2674;49.722;10.892;2024-03-02T00:52:46;42.77;;;23.20;;
5303;SDS011;2674;49.722;10.892;2024-03-02T00:55:13;40.53;;;20.57;;
5303;SDS011;2674;49.722;10.892;2024-03-02T00:57:40;43.50;;;21.40;;
5303;SDS011;2674;49.722;10.892;2024-03-02T01:00:06;44.17;;;22.37;;
5303;SDS011;2674;49.722;10.892;2024-03-02T01:02:35;43.73;;;21.20;;
5303;SDS011;2674;49.722;10.892;2024-03-02T01:05:01;46.90;;;21.33;;
5303;SDS011;2674;49.722;10.892;2024-03-02T01:07:27;41.47;;;22.60;;
5303;SDS011;2674;49.722;10.892;2024-03-02T01:09:53;44.87;;;22.87;;
5303;SDS011;2674;49.722;10.892;2024-03-02T01:12:19;42.60;;;20.80;;
5303;SDS011;2674;49.722;10.892;2024-03-02T01:14:44;42.70;;;21.80;;
5303;SDS011;2674;49.722;10.892;2024-03-02T01:17:10;40.43;;;21.10;;
5303;SDS011;2674;49.722;10.892;2024-03-02T01:19:36;49.40;;;22.63;;
5303;SDS011;2674;49.722;10.892;2024-03-02T01:22:03;49.20;;;23.17;;
5303;SDS011;2674;49.722;10.892;2024-03-02T01:24:29;50.53;;;21.43;;
5303;SDS011;2674;49.722;10.892;2024-03-02T01:26:55;46.60;;;23.23;;
5303;SDS011;2674;49.722;10.892;2024-03-02T01:29:21;41.70;;;21.33;;
5303;SDS011;2674;49.722;10.892;2024-03-02T01:31:47;48.03;;;22.17;;
5303;SDS011;2674;49.722;10.892;2024-03-02T01:34:13;44.27;;;22.23;;
5303;SDS011;2674;49.722;10.892;2024-03-02T01:36:39;44.83;;;21.47;;
5303;SDS011;2674;49.722;10.892;2024-03-02T01:39:05;43.67;;;22.10;;
5303;SDS011;2674;49.722;10.892;2024-03-02T01:41:34;44.70;;;22.47;;
5303;SDS011;2674;49.722;10.892;2024-03-02T01:44:00;47.70;;;22.13;;
5303;SDS011;2674;49.722;10.892;2024-03-02T01:46:26;47.40;;;23.10;;
5303;SDS011;2674;49.722;10.892;2024-03-02T01:48:52;53.40;;;24.03;;
5303;SDS011;2674;49.722;10.892;2024-03-02T01:51:18;39.90;;;20.83;;
5303;SDS011;2674;49.722;10.892;2024-03-02T01:53:44;49.90;;;22.47;;
5303;SDS011;2674;49.722;10.892;2024-03-02T01:56:10;46.40;;;22.53;;
5303;SDS011;2674;49.722;10.892;2024-03-02T01:58:36;56.63;;;22.73;;
5303;SDS011;2674;49.722;10.892;2024-03-02T02:01:02;48.30;;;24.87;;
5303;SDS011;2674;49.722;10.892;2024-03-02T02:03:28;41.80;;;23.30;;
5303;SDS011;2674;49.722;10.892;2024-03-02T02:05:54;56.23;;;22.43;;
5303;SDS011;2674;49.722;10.892;2024-03-02T02:08:20;42.00;;;21.37;;
5303;SDS011;2674;49.722;10.892;2024-03-02T02:10:46;43.67;;;23.17;;
5303;SDS011;2674;49.722;10.892;2024-03-02T02:13:12;51.00;;;24.70;;
5303;SDS011;2674;49.722;10.892;2024-03-02T02:15:38;55.73;;;24.97;;
5303;SDS011;2674;49.722;10.892;2024-03-02T02:18:04;46.50;;;23.50;;
5303;SDS011;2674;49.722;10.892;2024-03-02T02:20:30;44.17;;;22.60;;
5303;SDS011;2674;49.722;10.892;2024-03-02T02:23:02;49.40;;;23.83;;
5303;SDS011;2674;49.722;10.892;2024-03-02T02:25:30;50.27;;;25.10;;
5303;SDS011;2674;49.722;10.892;2024-03-02T02:27:56;49.43;;;24.23;;
5303;SDS011;2674;49.722;10.892;2024-03-02T02:30:26;51.80;;;23.53;;
5303;SDS011;2674;49.722;10.892;2024-03-02T02:32:55;43.83;;;23.63;;
5303;SDS011;2674;49.722;10.892;2024-03-02T02:35:22;49.13;;;24.10;;
5303;SDS011;2674;49.722;10.892;2024-03-02T02:37:49;47.40;;;24.20;;
5303;SDS011;2674;49.722;10.892;2024-03-02T02:40:17;51.97;;;23.97;;
5303;SDS011;2674;49.722;10.892;2024-03-02T02:42:45;51.40;;;21.80;;
5303;SDS011;2674;49.722;10.892;2024-03-02T02:45:11;54.63;;;24.70;;
5303;SDS011;2674;49.722;10.892;2024-03-02T02:47:40;45.67;;;21.40;;
5303;SDS011;2674;49.722;10.892;2024-03-02T02:50:10;45.57;;;23.83;;
5303;SDS011;2674;49.722;10.892;2024-03-02T02:52:37;46.50;;;23.93;;
5303;SDS011;2674;49.722;10.892;2024-03-02T02:55:06;49.30;;;23.63;;
5303;SDS011;2674;49.722;10.892;2024-03-02T02:57:33;53.10;;;22.93;;
5303;SDS011;2674;49.722;10.892;2024-03-02T03:00:10;45.60;;;23.90;;
5303;SDS011;2674;49.722;10.892;2024-03-02T03:02:41;46.60;;;23.87;;
5303;SDS011;2674;49.722;10.892;2024-03-02T03:05:11;50.97;;;24.90;;
5303;SDS011;2674;49.722;10.892;2024-03-02T03:07:39;49.53;;;24.03;;
5303;SDS011;2674;49.722;10.892;2024-03-02T03:10:05;46.97;;;23.30;;
5303;SDS011;2674;49.722;10.892;2024-03-02T03:12:32;44.10;;;23.33;;
5303;SDS011;2674;49.722;10.892;2024-03-02T03:14:59;54.57;;;27.37;;
5303;SDS011;2674;49.722;10.892;2024-03-02T03:17:25;51.27;;;24.70;;
5303;SDS011;2674;49.722;10.892;2024-03-02T03:19:52;55.03;;;24.93;;
5303;SDS011;2674;49.722;10.892;2024-03-02T03:22:18;49.33;;;24.20;;
5303;SDS011;2674;49.722;10.892;2024-03-02T03:24:44;55.63;;;23.70;;
5303;SDS011;2674;49.722;10.892;2024-03-02T03:27:10;56.70;;;24.80;;
5303;SDS011;2674;49.722;10.892;2024-03-02T03:29:39;51.20;;;24.80;;
5303;SDS011;2674;49.722;10.892;2024-03-02T03:32:05;66.77;;;25.33;;
5303;SDS011;2674;49.722;10.892;2024-03-02T03:34:35;54.67;;;24.80;;
5303;SDS011;2674;49.722;10.892;2024-03-02T03:37:01;52.87;;;23.00;;
5303;SDS011;2674;49.722;10.892;2024-03-02T03:39:27;46.90;;;24.47;;
5303;SDS011;2674;49.722;10.892;2024-03-02T03:41:56;45.70;;;24.43;;
5303;SDS011;2674;49.722;10.892;2024-03-02T03:44:22;48.13;;;23.33;;
5303;SDS011;2674;49.722;10.892;2024-03-02T03:46:47;57.10;;;24.80;;
5303;SDS011;2674;49.722;10.892;2024-03-02T03:49:13;45.70;;;23.73;;
5303;SDS011;2674;49.722;10.892;2024-03-02T03:51:39;54.33;;;24.17;;
5303;SDS011;2674;49.722;10.892;2024-03-02T03:54:05;47.70;;;24.30;;
5303;SDS011;2674;49.722;10.892;2024-03-02T03:56:31;52.73;;;24.27;;
5303;SDS011;2674;49.722;10.892;2024-03-02T03:58:57;42.83;;;23.77;;
5303;SDS011;2674;49.722;10.892;2024-03-02T04:01:24;49.17;;;23.27;;
5303;SDS011;2674;49.722;10.892;2024-03-02T04:03:50;46.97;;;22.57;;
5303;SDS011;2674;49.722;10.892;2024-03-02T04:06:16;47.37;;;23.67;;
5303;SDS011;2674;49.722;10.892;2024-03-02T04:08:42;45.63;;;23.90;;
5303;SDS011;2674;49.722;10.892;2024-03-02T04:11:08;50.47;;;23.30;;
5303;SDS011;2674;49.722;10.892;2024-03-02T04:13:34;47.13;;;23.30;;
5303;SDS011;2674;49.722;10.892;2024-03-02T04:16:00;43.63;;;22.07;;
5303;SDS011;2674;49.722;10.892;2024-03-02T04:18:25;49.60;;;21.90;;
5303;SDS011;2674;49.722;10.892;2024-03-02T04:20:51;44.67;;;23.50;;
5303;SDS011;2674;49.722;10.892;2024-03-02T04:23:17;46.83;;;23.00;;
5303;SDS011;2674;49.722;10.892;2024-03-02T04:25:43;43.47;;;21.50;;
5303;SDS011;2674;49.722;10.892;2024-03-02T04:28:09;43.27;;;21.63;;
5303;SDS011;2674;49.722;10.892;2024-03-02T04:30:35;46.73;;;21.47;;
5303;SDS011;2674;49.722;10.892;2024-03-02T04:33:00;48.03;;;22.70;;
5303;SDS011;2674;49.722;10.892;2024-03-02T04:35:27;54.77;;;23.87;;
5303;SDS011;2674;49.722;10.892;2024-03-02T04:37:54;46.43;;;20.47;;
5303;SDS011;2674;49.722;10.892;2024-03-02T04:40:19;46.50;;;21.90;;
5303;SDS011;2674;49.722;10.892;2024-03-02T04:42:45;46.07;;;22.63;;
5303;SDS011;2674;49.722;10.892;2024-03-02T04:45:11;40.00;;;22.20;;
5303;SDS011;2674;49.722;10.892;2024-03-02T04:47:37;50.63;;;22.70;;
5303;SDS011;2674;49.722;10.892;2024-03-02T04:50:02;46.73;;;21.70;;
5303;SDS011;2674;49.722;10.892;2024-03-02T04:52:29;45.73;;;22.67;;
5303;SDS011;2674;49.722;10.892;2024-03-02T04:54:54;44.00;;;22.07;;
5303;SDS011;2674;49.722;10.892;2024-03-02T04:57:44;45.77;;;21.20;;
5303;SDS011;2674;49.722;10.892;2024-03-02T05:00:11;44.33;;;21.13;;
5303;SDS011;2674;49.722;10.892;2024-03-02T05:02:37;37.10;;;19.77;;
5303;SDS011;2674;49.722;10.892;2024-03-02T05:05:03;40.53;;;20.83;;
5303;SDS011;2674;49.722;10.892;2024-03-02T05:07:29;43.53;;;22.33;;
5303;SDS011;2674;49.722;10.892;2024-03-02T05:09:55;49.70;;;23.07;;
5303;SDS011;2674;49.722;10.892;2024-03-02T05:12:21;50.93;;;21.23;;
5303;SDS011;2674;49.722;10.892;2024-03-02T05:15:05;44.03;;;22.17;;
5303;SDS011;2674;49.722;10.892;2024-03-02T05:17:32;46.17;;;23.47;;
5303;SDS011;2674;49.722;10.892;2024-03-02T05:19:58;43.00;;;20.20;;
5303;SDS011;2674;49.722;10.892;2024-03-02T05:22:24;45.90;;;21.43;;
5303;SDS011;2674;49.722;10.892;2024-03-02T05:24:50;46.43;;;21.57;;
5303;SDS011;2674;49.722;10.892;2024-03-02T05:27:15;52.97;;;22.00;;
5303;SDS011;2674;49.722;10.892;2024-03-02T05:29:41;56.53;;;22.33;;
5303;SDS011;2674;49.722;10.892;2024-03-02T05:32:07;40.93;;;21.00;;
5303;SDS011;2674;49.722;10.892;2024-03-02T05:34:32;50.07;;;22.17;;
5303;SDS011;2674;49.722;10.892;2024-03-02T05:37:00;52.23;;;22.57;;
5303;SDS011;2674;49.722;10.892;2024-03-02T05:39:26;51.80;;;23.07;;
5303;SDS011;2674;49.722;10.892;2024-03-02T05:41:52;42.03;;;21.27;;
5303;SDS011;2674;49.722;10.892;2024-03-02T05:44:18;46.60;;;22.00;;
5303;SDS011;2674;49.722;10.892;2024-03-02T05:46:44;45.40;;;20.90;;
5303;SDS011;2674;49.722;10.892;2024-03-02T05:49:11;43.97;;;22.00;;
5303;SDS011;2674;49.722;10.892;2024-03-02T05:51:37;42.00;;;19.90;;
5303;SDS011;2674;49.722;10.892;2024-03-02T05:54:03;42.83;;;19.60;;
5303;SDS011;2674;49.722;10.892;2024-03-02T05:56:29;53.70;;;21.37;;
5303;SDS011;2674;49.722;10.892;2024-03-02T05:58:54;39.93;;;18.97;;
5303;SDS011;2674;49.722;10.892;2024-03-02T06:01:39;50.53;;;19.50;;
5303;SDS011;2674;49.722;10.892;2024-03-02T06:04:06;43.03;;;20.13;;
5303;SDS011;2674;49.722;10.892;2024-03-02T06:06:31;40.90;;;19.70;;
5303;SDS011;2674;49.722;10.892;2024-03-02T06:09:02;39.87;;;18.50;;
5303;SDS011;2674;49.722;10.892;2024-03-02T06:11:32;41.30;;;19.03;;
5303;SDS011;2674;49.722;10.892;2024-03-02T06:13:59;41.73;;;18.00;;
5303;SDS011;2674;49.722;10.892;2024-03-02T06:16:25;41.53;;;17.97;;
5303;SDS011;2674;49.722;10.892;2024-03-02T06:18:50;43.00;;;20.07;;
5303;SDS011;2674;49.722;10.892;2024-03-02T06:21:16;48.23;;;19.90;;
5303;SDS011;2674;49.722;10.892;2024-03-02T06:23:43;37.97;;;18.07;;
5303;SDS011;2674;49.722;10.892;2024-03-02T06:26:09;37.67;;;18.10;;
5303;SDS011;2674;49.722;10.892;2024-03-02T06:28:35;37.40;;;19.00;;
5303;SDS011;2674;49.722;10.892;2024-03-02T06:31:01;40.97;;;19.00;;
5303;SDS011;2674;49.722;10.892;2024-03-02T06:33:27;39.80;;;18.13;;
5303;SDS011;2674;49.722;10.892;2024-03-02T06:35:53;33.93;;;17.27;;
5303;SDS011;2674;49.722;10.892;2024-03-02T06:38:19;34.27;;;18.73;;
5303;SDS011;2674;49.722;10.892;2024-03-02T06:40:45;32.23;;;17.17;;
5303;SDS011;2674;49.722;10.892;2024-03-02T06:43:11;39.73;;;18.67;;
5303;SDS011;2674;49.722;10.892;2024-03-02T06:45:37;35.67;;;18.80;;
5303;SDS011;2674;49.722;10.892;2024-03-02T06:48:03;43.60;;;19.50;;
5303;SDS011;2674;49.722;10.892;2024-03-02T06:50:29;35.10;;;17.83;;
5303;SDS011;2674;49.722;10.892;2024-03-02T06:52:55;45.90;;;19.20;;
5303;SDS011;2674;49.722;10.892;2024-03-02T06:55:21;39.63;;;17.80;;
5303;SDS011;2674;49.722;10.892;2024-03-02T06:57:47;41.57;;;20.93;;
5303;SDS011;2674;49.722;10.892;2024-03-02T07:00:13;35.97;;;18.77;;
5303;SDS011;2674;49.722;10.892;2024-03-02T07:02:39;43.47;;;19.70;;
5303;SDS011;2674;49.722;10.892;2024-03-02T07:05:06;41.63;;;19.37;;
5303;SDS011;2674;49.722;10.892;2024-03-02T07:07:33;41.10;;;21.30;;
5303;SDS011;2674;49.722;10.892;2024-03-02T07:10:00;37.90;;;20.60;;
5303;SDS011;2674;49.722;10.892;2024-03-02T07:12:26;40.27;;;19.47;;
5303;SDS011;2674;49.722;10.892;2024-03-02T07:14:52;40.07;;;20.30;;
5303;SDS011;2674;49.722;10.892;2024-03-02T07:17:30;43.37;;;19.87;;
5303;SDS011;2674;49.722;10.892;2024-03-02T07:19:57;40.00;;;18.27;;
5303;SDS011;2674;49.722;10.892;2024-03-02T07:22:23;35.23;;;17.50;;
5303;SDS011;2674;49.722;10.892;2024-03-02T07:24:49;47.07;;;20.13;;
5303;SDS011;2674;49.722;10.892;2024-03-02T07:27:15;38.13;;;19.67;;
5303;SDS011;2674;49.722;10.892;2024-03-02T07:29:42;34.50;;;18.40;;
5303;SDS011;2674;49.722;10.892;2024-03-02T07:32:08;34.30;;;19.37;;
5303;SDS011;2674;49.722;10.892;2024-03-02T07:34:35;38.30;;;17.60;;
5303;SDS011;2674;49.722;10.892;2024-03-02T07:37:01;36.17;;;17.80;;
5303;SDS011;2674;49.722;10.892;2024-03-02T07:39:27;34.63;;;17.70;;
5303;SDS011;2674;49.722;10.892;2024-03-02T07:41:53;41.10;;;19.43;;
5303;SDS011;2674;49.722;10.892;2024-03-02T07:44:19;33.27;;;16.93;;
5303;SDS011;2674;49.722;10.892;2024-03-02T07:46:45;38.43;;;19.30;;
5303;SDS011;2674;49.722;10.892;2024-03-02T07:49:12;33.20;;;16.70;;
5303;SDS011;2674;49.722;10.892;2024-03-02T07:51:39;35.60;;;18.37;;
5303;SDS011;2674;49.722;10.892;2024-03-02T07:54:05;28.20;;;15.90;;
5303;SDS011;2674;49.722;10.892;2024-03-02T07:56:30;36.80;;;18.13;;
5303;SDS011;2674;49.722;10.892;2024-03-02T07:58:56;31.53;;;17.80;;
5303;SDS011;2674;49.722;10.892;2024-03-02T08:01:26;33.60;;;16.17;;
5303;SDS011;2674;49.722;10.892;2024-03-02T08:04:01;32.30;;;17.80;;
5303;SDS011;2674;49.722;10.892;2024-03-02T08:06:29;32.07;;;16.90;;
5303;SDS011;2674;49.722;10.892;2024-03-02T08:08:55;27.67;;;15.83;;
5303;SDS011;2674;49.722;10.892;2024-03-02T08:11:23;27.60;;;15.40;;
5303;SDS011;2674;49.722;10.892;2024-03-02T08:13:49;27.80;;;15.20;;
5303;SDS011;2674;49.722;10.892;2024-03-02T08:16:18;26.00;;;14.63;;
5303;SDS011;2674;49.722;10.892;2024-03-02T08:18:50;26.47;;;15.93;;
5303;SDS011;2674;49.722;10.892;2024-03-02T08:21:15;28.97;;;15.53;;
5303;SDS011;2674;49.722;10.892;2024-03-02T08:23:44;30.50;;;16.50;;
5303;SDS011;2674;49.722;10.892;2024-03-02T08:26:11;25.80;;;15.90;;
5303;SDS011;2674;49.722;10.892;2024-03-02T08:28:37;21.50;;;12.77;;
5303;SDS011;2674;49.722;10.892;2024-03-02T08:31:05;25.20;;;14.50;;
5303;SDS011;2674;49.722;10.892;2024-03-02T08:33:32;25.90;;;14.50;;
5303;SDS011;2674;49.722;10.892;2024-03-02T08:35:58;30.97;;;15.37;;
5303;SDS011;2674;49.722;10.892;2024-03-02T08:38:24;20.30;;;12.13;;
5303;SDS011;2674;49.722;10.892;2024-03-02T08:40:50;26.10;;;15.30;;
5303;SDS011;2674;49.722;10.892;2024-03-02T08:43:16;27.40;;;14.70;;
5303;SDS011;2674;49.722;10.892;2024-03-02T08:45:42;23.23;;;14.47;;
5303;SDS011;2674;49.722;10.892;2024-03-02T08:48:08;25.03;;;13.00;;
5303;SDS011;2674;49.722;10.892;2024-03-02T08:50:35;24.10;;;13.60;;
5303;SDS011;2674;49.722;10.892;2024-03-02T08:53:01;23.97;;;13.83;;
5303;SDS011;2674;49.722;10.892;2024-03-02T08:55:28;21.10;;;12.27;;
5303;SDS011;2674;49.722;10.892;2024-03-02T08:57:54;19.77;;;12.10;;
5303;SDS011;2674;49.722;10.892;2024-03-02T09:00:20;20.83;;;12.80;;
5303;SDS011;2674;49.722;10.892;2024-03-02T09:02:46;20.40;;;11.97;;
5303;SDS011;2674;49.722;10.892;2024-03-02T09:05:12;18.13;;;10.97;;
5303;SDS011;2674;49.722;10.892;2024-03-02T09:07:38;20.73;;;12.80;;
5303;SDS011;2674;49.722;10.892;2024-03-02T09:10:05;22.20;;;12.93;;
5303;SDS011;2674;49.722;10.892;2024-03-02T09:12:31;15.53;;;10.13;;
5303;SDS011;2674;49.722;10.892;2024-03-02T09:14:57;18.53;;;11.20;;
5303;SDS011;2674;49.722;10.892;2024-03-02T09:17:24;18.20;;;11.03;;
5303;SDS011;2674;49.722;10.892;2024-03-02T09:19:50;19.07;;;11.07;;
5303;SDS011;2674;49.722;10.892;2024-03-02T09:22:19;18.60;;;11.47;;
5303;SDS011;2674;49.722;10.892;2024-03-02T09:24:45;15.43;;;10.07;;
5303;SDS011;2674;49.722;10.892;2024-03-02T09:27:11;14.47;;;9.20;;
5303;SDS011;2674;49.722;10.892;2024-03-02T09:29:37;17.33;;;10.10;;
5303;SDS011;2674;49.722;10.892;2024-03-02T09:32:04;20.60;;;11.07;;
5303;SDS011;2674;49.722;10.892;2024-03-02T09:34:37;14.33;;;9.07;;
5303;SDS011;2674;49.722;10.892;2024-03-02T09:37:02;19.03;;;10.40;;
5303;SDS011;2674;49.722;10.892;2024-03-02T09:39:29;18.83;;;10.70;;
5303;SDS011;2674;49.722;10.892;2024-03-02T09:41:55;17.50;;;10.37;;
5303;SDS011;2674;49.722;10.892;2024-03-02T09:44:21;18.73;;;10.73;;
5303;SDS011;2674;49.722;10.892;2024-03-02T09:46:51;17.80;;;10.73;;
5303;SDS011;2674;49.722;10.892;2024-03-02T09:49:18;16.33;;;9.90;;
5303;SDS011;2674;49.722;10.892;2024-03-02T09:51:46;18.57;;;11.63;;
5303;SDS011;2674;49.722;10.892;2024-03-02T09:54:13;22.03;;;12.00;;
5303;SDS011;2674;49.722;10.892;2024-03-02T09:56:39;17.80;;;10.27;;
5303;SDS011;2674;49.722;10.892;2024-03-02T09:59:04;15.40;;;9.70;;
5303;SDS011;2674;49.722;10.892;2024-03-02T10:01:30;18.07;;;9.90;;
5303;SDS011;2674;49.722;10.892;2024-03-02T10:03:59;15.10;;;10.43;;
5303;SDS011;2674;49.722;10.892;2024-03-02T10:06:27;14.17;;;9.40;;
5303;SDS011;2674;49.722;10.892;2024-03-02T10:08:54;17.70;;;8.13;;
5303;SDS011;2674;49.722;10.892;2024-03-02T10:11:27;17.60;;;8.87;;
5303;SDS011;2674;49.722;10.892;2024-03-02T10:14:07;17.87;;;9.83;;
5303;SDS011;2674;49.722;10.892;2024-03-02T10:16:40;16.50;;;9.77;;
5303;SDS011;2674;49.722;10.892;2024-03-02T10:21:49;15.13;;;9.00;;
5303;SDS011;2674;49.722;10.892;2024-03-02T10:24:17;16.77;;;8.53;;
5303;SDS011;2674;49.722;10.892;2024-03-02T10:26:43;13.40;;;8.87;;
5303;SDS011;2674;49.722;10.892;2024-03-02T10:29:09;17.40;;;8.20;;
5303;SDS011;2674;49.722;10.892;2024-03-02T10:31:40;12.50;;;8.63;;
5303;SDS011;2674;49.722;10.892;2024-03-02T10:34:11;12.00;;;8.13;;
5303;SDS011;2674;49.722;10.892;2024-03-02T10:36:41;12.00;;;7.47;;
5303;SDS011;2674;49.722;10.892;2024-03-02T10:39:08;9.47;;;7.43;;
5303;SDS011;2674;49.722;10.892;2024-03-02T10:41:34;9.20;;;7.40;;
5303;SDS011;2674;49.722;10.892;2024-03-02T10:44:02;12.27;;;8.17;;
5303;SDS011;2674;49.722;10.892;2024-03-02T10:46:30;12.80;;;7.53;;
5303;SDS011;2674;49.722;10.892;2024-03-02T10:48:57;9.50;;;6.73;;
5303;SDS011;2674;49.722;10.892;2024-03-02T10:51:27;11.87;;;7.53;;
5303;SDS011;2674;49.722;10.892;2024-03-02T10:54:00;9.60;;;7.30;;
5303;SDS011;2674;49.722;10.892;2024-03-02T10:56:33;15.20;;;8.07;;
5303;SDS011;2674;49.722;10.892;2024-03-02T11:02:04;12.00;;;7.23;;
5303;SDS011;2674;49.722;10.892;2024-03-02T11:04:33;9.77;;;6.83;;
5303;SDS011;2674;49.722;10.892;2024-03-02T11:07:02;8.33;;;6.60;;
5303;SDS011;2674;49.722;10.892;2024-03-02T11:09:33;11.73;;;7.30;;
5303;SDS011;2674;49.722;10.892;2024-03-02T11:12:02;10.00;;;7.40;;
5303;SDS011;2674;49.722;10.892;2024-03-02T11:14:29;10.57;;;6.73;;
5303;SDS011;2674;49.722;10.892;2024-03-02T11:17:00;9.80;;;7.37;;
5303;SDS011;2674;49.722;10.892;2024-03-02T11:19:28;9.23;;;6.67;;
5303;SDS011;2674;49.722;10.892;2024-03-02T11:21:55;7.43;;;6.33;;
5303;SDS011;2674;49.722;10.892;2024-03-02T11:26:53;11.47;;;7.10;;
5303;SDS011;2674;49.722;10.892;2024-03-02T11:30:04;8.70;;;6.23;;
5303;SDS011;2674;49.722;10.892;2024-03-02T11:32:06;8.80;;;5.80;;
5303;SDS011;2674;49.722;10.892;2024-03-02T11:34:39;9.87;;;6.60;;
5303;SDS011;2674;49.722;10.892;2024-03-02T11:37:10;7.10;;;6.27;;
5303;SDS011;2674;49.722;10.892;2024-03-02T11:39:37;9.37;;;6.20;;
5303;SDS011;2674;49.722;10.892;2024-03-02T11:42:07;7.03;;;5.80;;
5303;SDS011;2674;49.722;10.892;2024-03-02T11:44:37;7.63;;;5.77;;
5303;SDS011;2674;49.722;10.892;2024-03-02T11:47:07;6.90;;;6.20;;
5303;SDS011;2674;49.722;10.892;2024-03-02T11:49:36;9.00;;;5.87;;
5303;SDS011;2674;49.722;10.892;2024-03-02T11:52:16;5.90;;;5.07;;
5303;SDS011;2674;49.722;10.892;2024-03-02T11:54:43;8.93;;;6.10;;
5303;SDS011;2674;49.722;10.892;2024-03-02T11:57:17;8.43;;;6.07;;
5303;SDS011;2674;49.722;10.892;2024-03-02T11:59:44;8.10;;;6.40;;
5303;SDS011;2674;49.722;10.892;2024-03-02T12:02:14;10.00;;;6.73;;
5303;SDS011;2674;49.722;10.892;2024-03-02T12:04:44;8.47;;;5.77;;
5303;SDS011;2674;49.722;10.892;2024-03-02T12:07:11;8.10;;;6.17;;
5303;SDS011;2674;49.722;10.892;2024-03-02T12:09:38;8.67;;;5.80;;
5303;SDS011;2674;49.722;10.892;2024-03-02T12:12:07;7.63;;;5.70;;
5303;SDS011;2674;49.722;10.892;2024-03-02T12:14:34;5.87;;;4.90;;
5303;SDS011;2674;49.722;10.892;2024-03-02T12:17:01;6.63;;;5.40;;
5303;SDS011;2674;49.722;10.892;2024-03-02T12:19:28;8.10;;;4.87;;
5303;SDS011;2674;49.722;10.892;2024-03-02T12:21:58;9.07;;;6.47;;
5303;SDS011;2674;49.722;10.892;2024-03-02T12:24:30;8.80;;;5.73;;
5303;SDS011;2674;49.722;10.892;2024-03-02T12:26:56;11.07;;;6.50;;
5303;SDS011;2674;49.722;10.892;2024-03-02T12:29:22;7.40;;;5.90;;
5303;SDS011;2674;49.722;10.892;2024-03-02T12:31:50;7.20;;;5.90;;
5303;SDS011;2674;49.722;10.892;2024-03-02T12:34:20;9.50;;;6.30;;
5303;SDS011;2674;49.722;10.892;2024-03-02T12:36:47;9.80;;;6.10;;
5303;SDS011;2674;49.722;10.892;2024-03-02T12:39:15;8.40;;;6.57;;
5303;SDS011;2674;49.722;10.892;2024-03-02T12:41:42;8.87;;;6.23;;
5303;SDS011;2674;49.722;10.892;2024-03-02T12:44:08;8.33;;;5.63;;
5303;SDS011;2674;49.722;10.892;2024-03-02T12:46:34;10.23;;;7.03;;
5303;SDS011;2674;49.722;10.892;2024-03-02T12:49:10;11.20;;;6.50;;
5303;SDS011;2674;49.722;10.892;2024-03-02T12:51:41;8.13;;;6.50;;
5303;SDS011;2674;49.722;10.892;2024-03-02T12:54:07;13.53;;;7.57;;
5303;SDS011;2674;49.722;10.892;2024-03-02T12:56:35;8.63;;;6.50;;
5303;SDS011;2674;49.722;10.892;2024-03-02T12:59:01;9.37;;;7.20;;
5303;SDS011;2674;49.722;10.892;2024-03-02T13:01:27;10.57;;;7.57;;
5303;SDS011;2674;49.722;10.892;2024-03-02T13:03:53;6.97;;;6.10;;
5303;SDS011;2674;49.722;10.892;2024-03-02T13:06:22;8.80;;;7.00;;
5303;SDS011;2674;49.722;10.892;2024-03-02T13:08:49;10.40;;;6.97;;
5303;SDS011;2674;49.722;10.892;2024-03-02T13:11:15;7.47;;;5.50;;
5303;SDS011;2674;49.722;10.892;2024-03-02T13:13:42;14.93;;;8.40;;
5303;SDS011;2674;49.722;10.892;2024-03-02T13:16:11;10.03;;;7.30;;
5303;SDS011;2674;49.722;10.892;2024-03-02T13:18:40;6.70;;;5.97;;
5303;SDS011;2674;49.722;10.892;2024-03-02T13:21:07;7.07;;;5.87;;
5303;SDS011;2674;49.722;10.892;2024-03-02T13:23:33;9.10;;;6.50;;
5303;SDS011;2674;49.722;10.892;2024-03-02T13:26:00;8.23;;;6.07;;
5303;SDS011;2674;49.722;10.892;2024-03-02T13:28:26;10.00;;;6.50;;
5303;SDS011;2674;49.722;10.892;2024-03-02T13:30:52;9.33;;;6.40;;
5303;SDS011;2674;49.722;10.892;2024-03-02T13:33:17;12.93;;;6.90;;
5303;SDS011;2674;49.722;10.892;2024-03-02T13:35:48;8.73;;;6.07;;
5303;SDS011;2674;49.722;10.892;2024-03-02T13:38:16;7.80;;;5.90;;
5303;SDS011;2674;49.722;10.892;2024-03-02T13:40:45;8.23;;;6.20;;
5303;SDS011;2674;49.722;10.892;2024-03-02T13:43:11;16.77;;;7.10;;
5303;SDS011;2674;49.722;10.892;2024-03-02T13:45:38;9.30;;;5.87;;
5303;SDS011;2674;49.722;10.892;2024-03-02T13:48:04;8.00;;;6.50;;
5303;SDS011;2674;49.722;10.892;2024-03-02T13:50:30;9.70;;;7.00;;
5303;SDS011;2674;49.722;10.892;2024-03-02T13:52:56;10.20;;;7.03;;
5303;SDS011;2674;49.722;10.892;2024-03-02T13:55:22;12.37;;;6.77;;
5303;SDS011;2674;49.722;10.892;2024-03-02T13:57:48;7.53;;;5.57;;
5303;SDS011;2674;49.722;10.892;2024-03-02T14:00:15;8.03;;;6.10;;
5303;SDS011;2674;49.722;10.892;2024-03-02T14:02:48;8.40;;;5.47;;
5303;SDS011;2674;49.722;10.892;2024-03-02T14:05:17;12.10;;;7.37;;
5303;SDS011;2674;49.722;10.892;2024-03-02T14:07:44;11.47;;;6.37;;
5303;SDS011;2674;49.722;10.892;2024-03-02T14:10:10;13.57;;;6.77;;
5303;SDS011;2674;49.722;10.892;2024-03-02T14:12:36;10.63;;;6.83;;
5303;SDS011;2674;49.722;10.892;2024-03-02T14:15:02;10.70;;;7.10;;
5303;SDS011;2674;49.722;10.892;2024-03-02T14:17:29;12.07;;;7.33;;
5303;SDS011;2674;49.722;10.892;2024-03-02T14:19:57;11.23;;;7.43;;
5303;SDS011;2674;49.722;10.892;2024-03-02T14:22:24;11.33;;;7.27;;
5303;SDS011;2674;49.722;10.892;2024-03-02T14:24:50;12.43;;;7.70;;
5303;SDS011;2674;49.722;10.892;2024-03-02T14:27:16;14.43;;;7.97;;
5303;SDS011;2674;49.722;10.892;2024-03-02T14:29:42;11.97;;;6.80;;
5303;SDS011;2674;49.722;10.892;2024-03-02T14:32:08;11.63;;;7.30;;
5303;SDS011;2674;49.722;10.892;2024-03-02T14:34:34;13.50;;;8.90;;
5303;SDS011;2674;49.722;10.892;2024-03-02T14:37:00;14.70;;;8.50;;
5303;SDS011;2674;49.722;10.892;2024-03-02T14:39:26;10.50;;;7.57;;
5303;SDS011;2674;49.722;10.892;2024-03-02T14:41:52;14.50;;;8.73;;
5303;SDS011;2674;49.722;10.892;2024-03-02T14:44:23;12.50;;;6.93;;
5303;SDS011;2674;49.722;10.892;2024-03-02T14:46:49;12.53;;;8.00;;
5303;SDS011;2674;49.722;10.892;2024-03-02T14:49:15;11.73;;;8.10;;
5303;SDS011;2674;49.722;10.892;2024-03-02T14:51:41;11.00;;;7.10;;